Hale, United Kingdom
Current Conditions -  °F | °C
As of 6:20 PM on Thursday 29 Jan 2015 (Local Time) from EGLF Reporting Station
Few Clouds Few Clouds  
Wind Chill: 25°   Ceiling: Unl
Heat Index: 34°   Visibility: 6mi
Dew Point: 32°   Wind: 13mph
Humidity: 93%   Direction: 290°WNW
Pressure: 28.88"   Gusts: NA
Location:  51.22°N, 0.78°W
Report Text: EGLF 291820Z 29011KT 260V330 9999 FEW015 01/M00 Q0978
Loading
Personal Weather Stations






























Interactive Weather Map New forecast layout! Learn more

10-Day Weather Forecast

Advertisements
Track Severe Weather on mobile